Time;durP1;ratioP1;P1;durP2;ratioP2;P2;SDS_P1;SDS_P2;PMS_P1;PMS_P2;Temp;Humidity;BMP_temperature;BMP_pressure;BME280_temperature;BME280_humidity;BME280_pressure;Samples;Min_cycle;Max_cycle;Signal;HPM_P1;HPM_P2
2024/01/03 00:01:24;;;;;;;0.20;0.20;;;;;;;9.10;100.00;97027.78;5098510;28;20509;-60
2024/01/03 00:03:55;;;;;;;0.30;0.30;;;;;;;9.05;100.00;97039.31;5098754;28;20067;-60
2024/01/03 00:06:22;;;;;;;0.20;0.20;;;;;;;9.00;100.00;97050.06;5096880;28;20047;-60
2024/01/03 00:08:49;;;;;;;0.28;0.28;;;;;;;8.96;100.00;97050.91;5096559;28;20071;-60
2024/01/03 00:11:19;;;;;;;0.30;0.30;;;;;;;8.93;100.00;97056.84;5095925;28;20149;-60
2024/01/03 00:14:03;;;;;;;;;;;;;;;8.87;100.00;97095.38;5088281;28;20054;-60
2024/01/03 00:16:30;;;;;;;0.30;0.30;;;;;;;8.32;100.00;97116.94;5091878;28;19931;-61
2024/01/03 00:18:59;;;;;;;0.20;0.20;;;;;;;7.45;100.00;97104.13;5075256;28;20044;-59
2024/01/03 00:21:27;;;;;;;0.30;0.30;;;;;;;7.30;100.00;97102.34;5100459;28;20138;-61
2024/01/03 00:23:55;;;;;;;0.22;0.22;;;;;;;7.30;100.00;97100.47;5095481;28;20155;-60
2024/01/03 00:26:25;;;;;;;0.30;0.30;;;;;;;7.28;100.00;97062.63;5097719;28;20044;-60
2024/01/03 00:28:53;;;;;;;0.22;0.22;;;;;;;7.25;100.00;97073.03;5095370;28;20054;-60
2024/01/03 00:31:37;;;;;;;0.40;0.40;;;;;;;7.28;100.00;97073.28;5083324;28;20050;-60
2024/01/03 00:34:06;;;;;;;0.30;0.30;;;;;;;7.17;100.00;97070.97;5099341;28;20043;-60
2024/01/03 00:36:33;;;;;;;0.20;0.20;;;;;;;7.13;100.00;97082.13;5076483;28;20054;-60
2024/01/03 00:39:00;;;;;;;0.30;0.30;;;;;;;7.22;100.00;97078.94;5100908;28;20059;-60
2024/01/03 00:41:27;;;;;;;0.30;0.30;;;;;;;7.19;100.00;97079.44;5095669;28;20048;-60
2024/01/03 00:43:57;;;;;;;0.30;0.30;;;;;;;7.23;100.00;97065.31;5093705;28;20043;-60
2024/01/03 00:46:24;;;;;;;0.30;0.30;;;;;;;7.19;100.00;97055.47;5098048;28;20197;-60
2024/01/03 00:48:52;;;;;;;0.30;0.30;;;;;;;7.22;100.00;97070.94;5075360;28;20576;-60
2024/01/03 00:51:19;;;;;;;0.20;0.20;;;;;;;7.21;100.00;97077.31;5094811;28;20138;-61
2024/01/03 00:53:47;;;;;;;0.30;0.30;;;;;;;7.27;100.00;97070.91;5096000;28;20062;-61
2024/01/03 00:56:13;;;;;;;0.28;0.28;;;;;;;7.43;100.00;97071.63;5097922;28;20051;-60
2024/01/03 00:58:40;;;;;;;0.20;0.20;;;;;;;7.46;100.00;97065.75;5089936;28;20070;-61
2024/01/03 01:01:07;;;;;;;0.30;0.30;;;;;;;7.59;100.00;97061.66;5092562;28;20039;-60
2024/01/03 01:03:34;;;;;;;0.20;0.20;;;;;;;7.94;100.00;97053.44;5102741;28;20044;-61
2024/01/03 01:06:02;;;;;;;0.28;0.28;;;;;;;8.05;100.00;97061.38;5097677;28;20462;-61
2024/01/03 01:08:30;;;;;;;0.20;0.20;;;;;;;8.16;100.00;97050.34;5096731;28;20142;-61
2024/01/03 01:10:57;;;;;;;0.32;0.32;;;;;;;8.31;100.00;97056.59;5096465;28;20047;-60
2024/01/03 01:13:24;;;;;;;0.30;0.30;;;;;;;8.45;100.00;97062.13;5082346;28;20040;-61
2024/01/03 01:15:51;;;;;;;0.20;0.20;;;;;;;8.55;100.00;97057.47;5075823;28;20837;-61
2024/01/03 01:18:19;;;;;;;0.22;0.22;;;;;;;8.63;100.00;97075.56;5079868;28;20050;-61
2024/01/03 01:20:46;;;;;;;0.30;0.30;;;;;;;8.63;100.00;97074.75;5096378;28;20518;-59
2024/01/03 01:23:14;;;;;;;0.22;0.22;;;;;;;8.63;100.00;97077.44;5090635;28;20044;-61
2024/01/03 01:25:42;;;;;;;0.30;0.30;;;;;;;8.71;100.00;97070.69;5095338;28;20143;-58
2024/01/03 01:28:09;;;;;;;0.30;0.30;;;;;;;8.70;100.00;97061.09;5090602;28;20051;-61
2024/01/03 01:30:36;;;;;;;0.30;0.30;;;;;;;8.75;100.00;97063.72;5079871;28;20052;-60
2024/01/03 01:33:04;;;;;;;0.30;0.30;;;;;;;8.73;100.00;97077.34;5096445;28;20043;-59
2024/01/03 01:35:31;;;;;;;0.30;0.30;;;;;;;8.85;100.00;97076.94;5097978;28;20522;-59
2024/01/03 01:38:02;;;;;;;0.30;0.30;;;;;;;8.85;100.00;97082.28;5094948;28;20067;-60
2024/01/03 01:40:33;;;;;;;0.20;0.20;;;;;;;8.71;100.00;97086.72;5092579;28;20047;-60
2024/01/03 01:43:00;;;;;;;0.27;0.27;;;;;;;8.73;100.00;97081.88;5097439;28;20100;-59
2024/01/03 01:45:28;;;;;;;0.30;0.30;;;;;;;8.68;100.00;97090.75;5091172;28;20051;-60
2024/01/03 01:47:58;;;;;;;0.30;0.30;;;;;;;8.69;100.00;97078.19;5094099;28;20112;-59
2024/01/03 01:50:25;;;;;;;0.30;0.30;;;;;;;8.76;100.00;97089.31;5094504;28;20043;-60
2024/01/03 01:52:52;;;;;;;0.20;0.20;;;;;;;8.77;100.00;97088.25;5097004;28;20055;-62
2024/01/03 01:55:19;;;;;;;0.30;0.30;;;;;;;8.74;100.00;97100.31;5092147;28;20048;-60
2024/01/03 01:57:48;;;;;;;0.30;0.30;;;;;;;8.77;100.00;97089.06;5094117;28;20115;-61
2024/01/03 02:00:15;;;;;;;0.28;0.28;;;;;;;8.71;100.00;97114.22;5059673;28;20052;-60
2024/01/03 02:02:42;;;;;;;0.25;0.25;;;;;;;8.81;100.00;97102.63;5077910;28;20040;-60
2024/01/03 02:05:09;;;;;;;0.30;0.30;;;;;;;8.84;100.00;97112.78;5090687;28;20126;-60
2024/01/03 02:07:37;;;;;;;0.30;0.30;;;;;;;8.77;100.00;97107.75;5097388;28;20154;-61
2024/01/03 02:10:05;;;;;;;0.30;0.30;;;;;;;8.81;100.00;97108.78;5090983;28;20040;-60
2024/01/03 02:12:33;;;;;;;0.30;0.30;;;;;;;8.82;100.00;97114.91;5072402;28;20131;-61
2024/01/03 02:15:01;;;;;;;0.20;0.20;;;;;;;8.77;100.00;97102.41;5066617;28;20444;-61
2024/01/03 02:17:32;;;;;;;0.30;0.30;;;;;;;8.73;100.00;97096.03;5074503;28;20136;-61
2024/01/03 02:20:00;;;;;;;0.22;0.22;;;;;;;8.72;100.00;97109.69;5093956;28;20047;-61
2024/01/03 02:22:29;;;;;;;0.30;0.30;;;;;;;8.78;100.00;97104.00;5099131;28;20059;-61
2024/01/03 02:24:59;;;;;;;0.30;0.30;;;;;;;8.85;100.00;97099.09;5070502;28;20072;-60
2024/01/03 02:27:26;;;;;;;0.30;0.30;;;;;;;8.82;100.00;97098.91;5096998;28;20058;-60
2024/01/03 02:29:53;;;;;;;0.30;0.30;;;;;;;8.76;100.00;97095.47;5092894;28;20644;-60
2024/01/03 02:32:21;;;;;;;0.30;0.30;;;;;;;8.73;100.00;97098.69;5099879;28;20062;-60
2024/01/03 02:34:48;;;;;;;0.30;0.30;;;;;;;8.59;100.00;97095.91;5074571;28;20071;-60
2024/01/03 02:37:18;;;;;;;0.40;0.40;;;;;;;8.60;100.00;97097.50;5092566;28;20040;-60
2024/01/03 02:39:46;;;;;;;0.30;0.30;;;;;;;8.60;100.00;97097.50;5095856;28;20035;-60
2024/01/03 02:42:13;;;;;;;0.30;0.30;;;;;;;8.49;100.00;97103.22;5092896;28;20380;-60
2024/01/03 02:44:40;;;;;;;0.30;0.30;;;;;;;8.50;100.00;97108.25;5088360;28;20047;-60
2024/01/03 02:47:08;;;;;;;0.30;0.30;;;;;;;8.53;100.00;97109.56;5095961;28;20154;-60
2024/01/03 02:49:35;;;;;;;0.30;0.30;;;;;;;8.52;100.00;97116.00;5094555;28;20051;-60
2024/01/03 02:52:02;;;;;;;0.30;0.30;;;;;;;8.59;100.00;97111.94;5089937;28;20079;-60
2024/01/03 02:54:29;;;;;;;0.20;0.20;;;;;;;8.58;100.00;97098.84;5092303;28;20043;-60
2024/01/03 02:56:58;;;;;;;0.30;0.30;;;;;;;8.57;100.00;97102.59;5093747;28;20048;-60
2024/01/03 02:59:25;;;;;;;0.20;0.20;;;;;;;8.58;100.00;97109.53;5091222;28;20126;-60
2024/01/03 03:01:52;;;;;;;0.40;0.40;;;;;;;8.52;100.00;97099.97;5094649;28;20117;-60
2024/01/03 03:04:19;;;;;;;0.30;0.30;;;;;;;8.57;100.00;97103.41;5090530;28;20163;-60
2024/01/03 03:06:46;;;;;;;0.30;0.30;;;;;;;8.61;100.00;97108.97;5093537;28;20139;-60
2024/01/03 03:09:16;;;;;;;0.25;0.25;;;;;;;8.64;100.00;97109.22;5094508;28;20067;-60
2024/01/03 03:11:46;;;;;;;0.20;0.20;;;;;;;8.70;100.00;97117.97;5087396;28;20054;-60
2024/01/03 03:14:15;;;;;;;0.30;0.30;;;;;;;8.66;100.00;97111.59;5097212;28;20061;-60
2024/01/03 03:16:42;;;;;;;0.20;0.20;;;;;;;8.78;100.00;97116.56;5088074;28;20652;-60
2024/01/03 03:19:09;;;;;;;0.30;0.30;;;;;;;8.74;100.00;97116.34;5092695;28;20112;-60
2024/01/03 03:21:36;;;;;;;0.28;0.28;;;;;;;8.74;100.00;97126.22;5093859;28;20111;-61
2024/01/03 03:24:04;;;;;;;0.30;0.30;;;;;;;8.79;100.00;97123.50;5092748;28;20032;-60
2024/01/03 03:26:31;;;;;;;0.30;0.30;;;;;;;8.75;100.00;97114.44;5074478;28;20052;-60
2024/01/03 03:28:58;;;;;;;0.30;0.30;;;;;;;8.71;100.00;97127.59;5086913;28;20055;-60
2024/01/03 03:31:27;;;;;;;0.20;0.20;;;;;;;8.73;100.00;97120.06;5090574;28;20254;-61
2024/01/03 03:33:54;;;;;;;0.30;0.30;;;;;;;8.64;100.00;97113.75;5091419;28;20090;-60
2024/01/03 03:36:21;;;;;;;0.30;0.30;;;;;;;8.61;100.00;97109.78;5090725;28;20396;-61
2024/01/03 03:38:48;;;;;;;0.30;0.30;;;;;;;8.61;100.00;97114.28;5094993;28;20573;-60
2024/01/03 03:41:15;;;;;;;0.20;0.20;;;;;;;8.64;100.00;97125.22;5096965;28;20040;-60
2024/01/03 03:43:42;;;;;;;0.38;0.38;;;;;;;8.67;100.00;97126.53;5102738;28;20168;-60
2024/01/03 03:46:10;;;;;;;0.20;0.20;;;;;;;8.63;100.00;97112.94;5093521;28;20046;-60
2024/01/03 03:48:39;;;;;;;0.30;0.30;;;;;;;8.64;100.00;97113.75;5094081;28;20046;-61
2024/01/03 03:51:06;;;;;;;0.30;0.30;;;;;;;8.68;100.00;97130.78;5074252;28;20044;-60
2024/01/03 03:53:33;;;;;;;0.20;0.20;;;;;;;8.66;100.00;97116.91;5093983;28;20109;-60
2024/01/03 03:56:00;;;;;;;0.30;0.30;;;;;;;8.64;100.00;97119.91;5098325;28;20418;-60
2024/01/03 03:58:27;;;;;;;0.30;0.30;;;;;;;8.75;100.00;97128.59;5093391;28;20059;-60
2024/01/03 04:00:54;;;;;;;0.30;0.30;;;;;;;8.73;100.00;97128.06;5068777;28;20398;-60
2024/01/03 04:03:21;;;;;;;0.30;0.30;;;;;;;8.68;100.00;97136.13;5098751;28;20314;-60
2024/01/03 04:05:50;;;;;;;0.20;0.20;;;;;;;8.74;100.00;97140.38;5074455;28;20147;-60
2024/01/03 04:08:17;;;;;;;0.30;0.30;;;;;;;8.72;100.00;97131.84;5095820;28;20131;-60
2024/01/03 04:10:44;;;;;;;0.28;0.28;;;;;;;8.64;100.00;97141.25;5090862;28;20270;-60
2024/01/03 04:13:11;;;;;;;0.20;0.20;;;;;;;8.55;100.00;97148.28;5097855;28;20044;-60
2024/01/03 04:15:38;;;;;;;0.20;0.20;;;;;;;8.62;100.00;97131.94;5095523;28;20147;-61
2024/01/03 04:18:06;;;;;;;0.30;0.30;;;;;;;8.59;100.00;97135.16;5092234;28;20047;-60
2024/01/03 04:20:33;;;;;;;0.13;0.13;;;;;;;8.57;100.00;97140.78;5088876;28;20040;-60
2024/01/03 04:23:02;;;;;;;0.20;0.20;;;;;;;8.60;100.00;97150.09;5099636;28;20351;-60
2024/01/03 04:25:29;;;;;;;0.30;0.30;;;;;;;8.52;100.00;97148.03;5099774;28;20559;-60
2024/01/03 04:27:56;;;;;;;0.32;0.32;;;;;;;8.60;100.00;97128.75;5085441;28;20047;-60
2024/01/03 04:30:23;;;;;;;0.20;0.20;;;;;;;8.57;100.00;97131.97;5096736;28;20050;-60
2024/01/03 04:32:50;;;;;;;0.20;0.20;;;;;;;8.66;100.00;97138.28;5098518;28;20572;-60
2024/01/03 04:35:17;;;;;;;0.35;0.35;;;;;;;8.60;100.00;97139.41;5094468;28;20085;-60
2024/01/03 04:37:44;;;;;;;0.20;0.20;;;;;;;8.63;100.00;97142.31;5093824;28;20039;-60
2024/01/03 04:40:13;;;;;;;0.30;0.30;;;;;;;8.56;100.00;97149.06;5075887;28;20068;-60
2024/01/03 04:42:40;;;;;;;0.30;0.30;;;;;;;8.73;100.00;97152.13;5099326;28;20044;-60
2024/01/03 04:45:07;;;;;;;0.30;0.30;;;;;;;8.65;100.00;97152.72;5090498;28;20354;-60
2024/01/03 04:47:34;;;;;;;0.30;0.30;;;;;;;8.67;100.00;97161.25;5090998;28;20047;-60
2024/01/03 04:50:01;;;;;;;0.30;0.30;;;;;;;8.81;100.00;97148.84;5095717;28;20039;-60
2024/01/03 04:52:28;;;;;;;0.22;0.22;;;;;;;8.72;100.00;97150.53;5093293;28;20433;-60
2024/01/03 04:54:55;;;;;;;0.30;0.30;;;;;;;8.75;100.00;97146.50;5078238;28;20580;-60
2024/01/03 04:57:24;;;;;;;0.20;0.20;;;;;;;8.79;100.00;97144.88;5097921;28;20047;-60
2024/01/03 04:59:51;;;;;;;0.40;0.40;;;;;;;8.78;100.00;97146.72;5091028;28;20100;-60
2024/01/03 05:02:21;;;;;;;0.30;0.30;;;;;;;8.86;100.00;97145.31;5082622;28;20048;-60
2024/01/03 05:04:48;;;;;;;;;;;;;;;8.83;100.00;97144.00;5101013;28;20076;-60
2024/01/03 05:07:16;;;;;;;0.30;0.30;;;;;;;8.79;100.00;97153.69;5090218;28;20042;-60
2024/01/03 05:09:43;;;;;;;0.20;0.20;;;;;;;8.81;100.00;97156.06;5093326;28;20040;-60
2024/01/03 05:12:10;;;;;;;0.20;0.20;;;;;;;8.82;100.00;97147.75;5089543;28;20044;-60
2024/01/03 05:14:39;;;;;;;0.30;0.30;;;;;;;8.90;100.00;97153.56;5091701;28;20410;-60
2024/01/03 05:17:06;;;;;;;0.30;0.30;;;;;;;8.90;100.00;97164.25;5086181;28;20040;-60
2024/01/03 05:19:33;;;;;;;0.20;0.20;;;;;;;8.89;100.00;97162.69;5091540;28;20123;-60
2024/01/03 05:22:01;;;;;;;0.20;0.20;;;;;;;8.93;100.00;97158.34;5088087;28;20112;-60
2024/01/03 05:24:28;;;;;;;0.28;0.28;;;;;;;8.76;100.00;97143.56;5096284;28;20050;-60
2024/01/03 05:26:55;;;;;;;0.20;0.20;;;;;;;8.83;100.00;97148.56;5070952;28;20397;-60
2024/01/03 05:29:22;;;;;;;0.30;0.30;;;;;;;8.66;100.00;97148.97;5077451;28;20048;-60
2024/01/03 05:31:50;;;;;;;0.22;0.22;;;;;;;8.70;100.00;97154.56;5089467;28;20167;-60
2024/01/03 05:34:18;;;;;;;0.20;0.20;;;;;;;8.57;100.00;97140.00;5097729;28;20538;-60
2024/01/03 05:36:45;;;;;;;0.30;0.30;;;;;;;8.53;100.00;97154.97;5094051;28;20063;-60
2024/01/03 05:39:12;;;;;;;0.30;0.30;;;;;;;8.59;100.00;97156.53;5091990;28;20054;-60
2024/01/03 05:41:40;;;;;;;0.30;0.30;;;;;;;8.49;100.00;97157.41;5084888;28;20549;-60
2024/01/03 05:44:07;;;;;;;0.20;0.20;;;;;;;8.56;100.00;97162.41;5095985;28;20132;-60
2024/01/03 05:46:34;;;;;;;0.30;0.30;;;;;;;8.61;100.00;97143.66;5080052;28;20046;-60
2024/01/03 05:49:05;;;;;;;0.20;0.20;;;;;;;8.67;100.00;97153.25;5073966;28;20050;-60
2024/01/03 05:51:32;;;;;;;0.30;0.30;;;;;;;8.71;100.00;97158.81;5088173;28;20047;-60
2024/01/03 05:54:01;;;;;;;0.20;0.20;;;;;;;8.58;100.00;97152.25;5092619;28;20151;-59
2024/01/03 05:56:28;;;;;;;0.20;0.20;;;;;;;8.42;100.00;97152.38;5089983;28;20563;-60
2024/01/03 05:58:55;;;;;;;0.20;0.20;;;;;;;8.45;100.00;97153.69;5072771;28;20054;-60
2024/01/03 06:01:22;;;;;;;0.30;0.30;;;;;;;8.33;100.00;97148.66;5095819;28;20043;-60
2024/01/03 06:03:50;;;;;;;0.30;0.30;;;;;;;8.37;100.00;97147.03;5080467;28;20055;-60
2024/01/03 06:06:19;;;;;;;0.30;0.30;;;;;;;8.29;100.00;97147.66;5077068;28;20058;-60
2024/01/03 06:08:46;;;;;;;0.20;0.20;;;;;;;8.26;100.00;97153.53;5093665;28;20039;-60
2024/01/03 06:11:13;;;;;;;0.30;0.30;;;;;;;8.35;100.00;97154.53;5089442;28;20389;-59
2024/01/03 06:13:40;;;;;;;0.30;0.30;;;;;;;8.48;100.00;97160.34;5094307;28;20576;-60
2024/01/03 06:16:09;;;;;;;0.20;0.20;;;;;;;8.47;100.00;97156.88;5096811;28;20125;-60
2024/01/03 06:18:36;;;;;;;0.20;0.20;;;;;;;8.38;100.00;97153.97;5089264;28;20509;-60
2024/01/03 06:21:11;;;;;;;0.38;0.38;;;;;;;8.35;100.00;97143.84;5084416;28;20040;-60
2024/01/03 06:23:40;;;;;;;0.20;0.20;;;;;;;8.20;100.00;97146.63;5093978;28;20131;-60
2024/01/03 06:26:09;;;;;;;0.30;0.30;;;;;;;8.21;100.00;97158.91;5090148;28;20642;-60
2024/01/03 06:28:36;;;;;;;0.30;0.30;;;;;;;8.08;100.00;97164.84;5091777;28;20068;-60
2024/01/03 06:31:03;;;;;;;0.30;0.30;;;;;;;8.08;100.00;97159.53;5095255;28;21286;-60
2024/01/03 06:33:30;;;;;;;0.30;0.30;;;;;;;8.05;100.00;97165.41;5097802;28;20043;-60
2024/01/03 06:35:58;;;;;;;0.30;0.30;;;;;;;8.08;100.00;97160.31;5093028;28;20400;-59
2024/01/03 06:38:27;;;;;;;0.40;0.40;;;;;;;8.07;100.00;97163.28;5093179;28;20055;-60
2024/01/03 06:40:55;;;;;;;0.40;0.40;;;;;;;8.14;100.00;97153.88;5073693;28;20044;-60
2024/01/03 06:43:23;;;;;;;0.35;0.35;;;;;;;8.19;100.00;97161.06;5080385;28;20349;-60
2024/01/03 06:45:50;;;;;;;0.30;0.30;;;;;;;8.18;100.00;97159.47;5093270;28;20051;-60
2024/01/03 06:48:17;;;;;;;0.30;0.30;;;;;;;8.19;100.00;97151.19;5075514;28;20134;-60
2024/01/03 06:50:44;;;;;;;0.40;0.40;;;;;;;8.14;100.00;97145.09;5091771;28;20464;-60
2024/01/03 06:53:11;;;;;;;0.30;0.30;;;;;;;8.09;100.00;97161.94;5095380;28;20146;-60
2024/01/03 06:55:40;;;;;;;0.30;0.30;;;;;;;8.12;100.00;97149.91;5090547;28;20056;-60
2024/01/03 06:58:08;;;;;;;0.30;0.30;;;;;;;8.14;100.00;97150.44;5074119;28;20483;-60
2024/01/03 07:00:35;;;;;;;0.30;0.30;;;;;;;8.03;100.00;97130.22;5094418;28;20130;-60
2024/01/03 07:03:02;;;;;;;0.30;0.30;;;;;;;8.08;100.00;97138.97;5094663;28;20039;-60
2024/01/03 07:05:29;;;;;;;0.30;0.30;;;;;;;7.97;100.00;97124.13;5096682;28;20036;-60
2024/01/03 07:07:58;;;;;;;0.30;0.30;;;;;;;7.77;100.00;97138.38;5094439;28;20035;-61
2024/01/03 07:10:31;;;;;;;0.40;0.40;;;;;;;7.72;100.00;97125.06;5091933;28;20044;-60
2024/01/03 07:13:01;;;;;;;0.30;0.30;;;;;;;7.77;100.00;97135.72;5090062;28;20051;-60
2024/01/03 07:15:29;;;;;;;0.30;0.30;;;;;;;7.69;100.00;97128.28;5098882;28;20052;-60
2024/01/03 07:17:57;;;;;;;0.30;0.30;;;;;;;7.84;100.00;97144.19;5093439;28;20142;-60
2024/01/03 07:20:24;;;;;;;0.28;0.28;;;;;;;7.91;100.00;97144.69;5091093;28;20055;-61
2024/01/03 07:22:51;;;;;;;0.30;0.30;;;;;;;7.92;100.00;97151.63;5091023;28;20048;-61
2024/01/03 07:25:18;;;;;;;0.30;0.30;;;;;;;7.90;100.00;97121.75;5092499;28;20044;-61
2024/01/03 07:27:47;;;;;;;0.32;0.32;;;;;;;7.98;100.00;97153.16;5094735;28;20059;-61
2024/01/03 07:30:15;;;;;;;0.30;0.30;;;;;;;7.90;100.00;97148.41;5092712;28;20539;-61
2024/01/03 07:32:43;;;;;;;0.32;0.32;;;;;;;7.84;100.00;97133.53;5095137;28;20566;-61
2024/01/03 07:35:10;;;;;;;0.30;0.30;;;;;;;7.77;100.00;97138.38;5095907;28;20059;-61
2024/01/03 07:37:37;;;;;;;0.30;0.30;;;;;;;7.70;100.00;97137.88;5089476;28;20058;-61
2024/01/03 07:40:05;;;;;;;0.30;0.30;;;;;;;7.63;100.00;97148.81;5096012;28;20482;-61
2024/01/03 07:42:32;;;;;;;0.20;0.20;;;;;;;7.69;100.00;97153.06;5093130;28;20386;-61
2024/01/03 07:44:59;;;;;;;0.30;0.30;;;;;;;7.73;100.00;97158.66;5094879;28;20101;-61
2024/01/03 07:47:26;;;;;;;0.20;0.20;;;;;;;7.64;100.00;97165.63;5090838;28;20044;-61
2024/01/03 07:49:54;;;;;;;0.30;0.30;;;;;;;7.71;100.00;97168.78;5080915;28;20044;-61
2024/01/03 07:52:21;;;;;;;0.30;0.30;;;;;;;7.82;100.00;97175.69;5092183;28;20066;-61
2024/01/03 07:54:48;;;;;;;0.30;0.30;;;;;;;7.81;100.00;97173.28;5088747;28;20036;-61
2024/01/03 07:57:15;;;;;;;0.30;0.30;;;;;;;7.76;100.00;97177.59;5090622;28;20506;-61
2024/01/03 07:59:44;;;;;;;0.25;0.25;;;;;;;7.88;100.00;97166.56;5094184;28;20051;-61
2024/01/03 08:02:13;;;;;;;0.30;0.30;;;;;;;7.90;100.00;97159.09;5091721;28;20051;-60
2024/01/03 08:04:40;;;;;;;0.30;0.30;;;;;;;7.95;100.00;97172.41;5090765;28;20279;-60
2024/01/03 08:07:08;;;;;;;0.30;0.30;;;;;;;8.00;100.00;97163.56;5092890;28;20044;-58
2024/01/03 08:09:37;;;;;;;0.20;0.20;;;;;;;7.99;100.00;97152.13;5097090;28;20474;-58
2024/01/03 08:12:05;;;;;;;0.20;0.20;;;;;;;8.07;100.00;97152.59;5090392;28;20047;-61
2024/01/03 08:14:34;;;;;;;0.20;0.20;;;;;;;8.10;100.00;97152.03;5067045;28;20048;-59
2024/01/03 08:17:01;;;;;;;0.20;0.20;;;;;;;8.24;100.00;97146.88;5088811;28;20836;-62
2024/01/03 08:19:28;;;;;;;0.30;0.30;;;;;;;8.29;100.00;97134.31;5086083;28;20535;-61
2024/01/03 08:21:57;;;;;;;0.20;0.20;;;;;;;8.40;100.00;97135.84;5088812;28;20152;-61
2024/01/03 08:24:26;;;;;;;0.20;0.20;;;;;;;8.54;100.00;97151.22;5082422;28;20516;-61
2024/01/03 08:26:53;;;;;;;0.28;0.28;;;;;;;8.59;100.00;97146.63;5098688;28;20130;-61
2024/01/03 08:29:20;;;;;;;0.20;0.20;;;;;;;8.61;100.00;97146.34;5093246;28;20047;-61
2024/01/03 08:31:47;;;;;;;0.25;0.25;;;;;;;8.74;100.00;97168.97;5082408;28;20046;-60
2024/01/03 08:34:14;;;;;;;0.22;0.22;;;;;;;8.65;100.00;97179.44;5097572;28;20489;-60
2024/01/03 08:36:42;;;;;;;0.20;0.20;;;;;;;8.64;100.00;97177.84;5098402;28;20052;-61
2024/01/03 08:39:09;;;;;;;0.30;0.30;;;;;;;8.59;100.00;97188.56;5096589;28;20122;-59
2024/01/03 08:41:38;;;;;;;0.30;0.30;;;;;;;8.54;100.00;97188.63;5095339;28;20150;-59
2024/01/03 08:44:06;;;;;;;0.20;0.20;;;;;;;8.64;100.00;97194.66;5085076;28;20081;-59
2024/01/03 08:46:34;;;;;;;0.30;0.30;;;;;;;8.67;100.00;97193.31;5076815;28;20058;-59
2024/01/03 08:49:03;;;;;;;0.20;0.20;;;;;;;8.65;100.00;97195.44;5097169;28;20580;-59
2024/01/03 08:51:30;;;;;;;0.30;0.30;;;;;;;8.85;100.00;97200.63;5095345;28;20051;-59
2024/01/03 08:53:57;;;;;;;0.30;0.30;;;;;;;8.92;100.00;97212.88;5100329;28;20066;-59
2024/01/03 08:56:24;;;;;;;0.30;0.30;;;;;;;9.00;100.00;97217.59;5092941;28;20359;-59
2024/01/03 08:58:53;;;;;;;0.30;0.30;;;;;;;8.92;100.00;97200.31;5093284;28;20130;-59
2024/01/03 09:01:21;;;;;;;0.30;0.30;;;;;;;8.87;100.00;97196.91;5090752;28;20044;-59
2024/01/03 09:03:48;;;;;;;0.20;0.20;;;;;;;8.82;100.00;97206.53;5101148;28;20383;-59
2024/01/03 09:06:15;;;;;;;0.30;0.30;;;;;;;8.80;100.00;97208.69;5076879;28;20039;-59
2024/01/03 09:08:42;;;;;;;0.20;0.20;;;;;;;8.85;100.00;97211.31;5100557;28;20119;-60
2024/01/03 09:11:11;;;;;;;0.20;0.20;;;;;;;9.05;100.00;97220.22;5088751;28;20688;-59
2024/01/03 09:13:38;;;;;;;0.32;0.32;;;;;;;9.11;100.00;97219.13;5091698;28;20040;-59
2024/01/03 09:16:09;;;;;;;0.25;0.25;;;;;;;9.17;100.00;97223.31;5098335;28;20657;-59
2024/01/03 09:18:36;;;;;;;0.30;0.30;;;;;;;9.17;100.00;97209.16;5094502;28;20067;-60
2024/01/03 09:21:03;;;;;;;0.30;0.30;;;;;;;9.17;100.00;97228.66;5095156;28;20051;-59
2024/01/03 09:23:29;;;;;;;0.20;0.20;;;;;;;9.17;100.00;97239.38;5095763;28;20131;-59
2024/01/03 09:25:58;;;;;;;0.30;0.30;;;;;;;9.85;100.00;97232.22;5089491;28;20052;-59
2024/01/03 09:28:25;;;;;;;0.20;0.20;;;;;;;9.86;100.00;97236.47;5088759;28;20044;-59
2024/01/03 09:30:52;;;;;;;0.30;0.30;;;;;;;9.55;100.00;97242.19;5093681;28;20035;-60
2024/01/03 09:33:20;;;;;;;0.20;0.20;;;;;;;9.44;100.00;97240.72;5091219;28;20695;-59
2024/01/03 09:35:47;;;;;;;0.20;0.20;;;;;;;9.42;100.00;97234.84;5093792;28;20039;-60
2024/01/03 09:38:14;;;;;;;0.20;0.20;;;;;;;9.42;100.00;97253.56;5074399;28;20486;-60
2024/01/03 09:40:41;;;;;;;0.20;0.20;;;;;;;9.49;100.00;97251.34;5088619;28;20138;-60
2024/01/03 09:43:09;;;;;;;0.28;0.28;;;;;;;9.37;100.00;97256.28;5074446;28;20046;-60
2024/01/03 09:45:36;;;;;;;0.30;0.30;;;;;;;9.28;100.00;97259.59;5093846;28;20039;-60
2024/01/03 09:48:03;;;;;;;0.25;0.25;;;;;;;9.24;100.00;97261.22;5090433;28;20044;-60
2024/01/03 09:50:31;;;;;;;0.20;0.20;;;;;;;9.17;100.00;97266.09;5097281;28;20326;-59
2024/01/03 09:52:58;;;;;;;0.10;0.10;;;;;;;9.06;100.00;97270.72;5095331;28;20040;-60
2024/01/03 09:55:27;;;;;;;0.20;0.20;;;;;;;9.10;100.00;97273.63;5096931;28;20175;-60
2024/01/03 09:57:55;;;;;;;0.20;0.20;;;;;;;8.94;100.00;97282.88;5091124;28;20063;-60
2024/01/03 10:00:23;;;;;;;0.20;0.20;;;;;;;8.92;100.00;97275.13;5092151;28;20051;-59
2024/01/03 10:02:51;;;;;;;0.20;0.20;;;;;;;8.96;100.00;97278.00;5100776;28;20039;-60
2024/01/03 10:05:21;;;;;;;0.20;0.20;;;;;;;8.92;100.00;97279.66;5091800;28;20050;-59
2024/01/03 10:07:49;;;;;;;0.30;0.30;;;;;;;8.95;100.00;97249.72;5093813;28;20040;-60
2024/01/03 10:10:28;;;;;;;0.20;0.20;;;;;;;8.85;100.00;97269.28;5095633;28;20291;-60
2024/01/03 10:12:56;;;;;;;0.20;0.20;;;;;;;8.86;100.00;97273.53;5087525;28;20064;-60
2024/01/03 10:15:23;;;;;;;0.20;0.20;;;;;;;8.76;100.00;97261.09;5096285;28;20083;-60
2024/01/03 10:17:50;;;;;;;0.30;0.30;;;;;;;8.73;100.00;97269.63;5092157;28;20036;-60
2024/01/03 10:20:24;;;;;;;0.20;0.20;;;;;;;8.59;100.00;97279.38;5093688;28;20048;-60
2024/01/03 10:23:05;;;;;;;0.30;0.30;;;;;;;8.56;100.00;97279.91;5095896;28;20067;-60
2024/01/03 10:25:33;;;;;;;0.20;0.20;;;;;;;8.55;100.00;97278.31;5090767;28;20361;-60
2024/01/03 10:28:01;;;;;;;0.40;0.40;;;;;;;8.62;100.00;97276.13;5093643;28;20135;-60
2024/01/03 10:30:28;;;;;;;0.17;0.17;;;;;;;8.66;100.00;97285.16;5099347;28;20048;-60
2024/01/03 10:32:58;;;;;;;0.30;0.30;;;;;;;8.54;100.00;97288.19;5088733;28;20493;-60
2024/01/03 10:35:28;;;;;;;0.30;0.30;;;;;;;8.66;100.00;97287.84;5088562;28;20062;-60
2024/01/03 10:37:55;;;;;;;0.32;0.32;;;;;;;8.56;100.00;97286.06;5097541;28;20545;-60
2024/01/03 10:40:25;;;;;;;0.20;0.20;;;;;;;8.49;100.00;97276.75;5091336;28;20120;-60
2024/01/03 10:42:52;;;;;;;0.40;0.40;;;;;;;9.20;100.00;97273.53;5091723;28;20454;-60
2024/01/03 10:45:19;;;;;;;0.40;0.40;;;;;;;10.13;100.00;97270.69;5092400;28;20059;-61
2024/01/03 10:47:46;;;;;;;0.30;0.30;;;;;;;10.43;100.00;97277.53;5085726;28;20055;-60
2024/01/03 10:50:13;;;;;;;0.30;0.30;;;;;;;10.24;100.00;97255.31;5071857;28;21803;-60
2024/01/03 10:52:42;;;;;;;0.20;0.20;;;;;;;10.29;100.00;97268.66;5091719;28;20067;-61
2024/01/03 10:55:10;;;;;;;0.20;0.20;;;;;;;10.97;100.00;97267.38;5085772;28;20144;-60
2024/01/03 10:57:41;;;;;;;0.20;0.20;;;;;;;11.28;99.79;97280.28;5086675;28;20044;-60
2024/01/03 11:00:12;;;;;;;0.10;0.10;;;;;;;11.64;96.38;97275.09;5087664;28;20054;-60
2024/01/03 11:02:42;;;;;;;0.28;0.28;;;;;;;11.00;98.85;97282.88;5086192;28;20052;-60
2024/01/03 11:05:12;;;;;;;0.10;0.10;;;;;;;10.90;98.40;97283.84;5092045;28;20051;-60
2024/01/03 11:07:44;;;;;;;0.17;0.17;;;;;;;10.29;100.00;97284.72;5090041;28;20051;-61
2024/01/03 11:10:11;;;;;;;0.13;0.13;;;;;;;10.24;100.00;97282.88;5073368;28;20409;-60
2024/01/03 11:12:39;;;;;;;0.20;0.20;;;;;;;9.84;100.00;97281.47;5093041;28;20433;-60
2024/01/03 11:15:22;;;;;;;0.20;0.20;;;;;;;10.02;100.00;97280.72;5090086;28;20052;-59
2024/01/03 11:17:49;;;;;;;0.20;0.20;;;;;;;9.92;100.00;97270.94;5087848;28;20493;-60
2024/01/03 11:20:17;;;;;;;0.25;0.25;;;;;;;9.92;100.00;97278.97;5093274;28;20052;-60
2024/01/03 11:22:57;;;;;;;0.20;0.20;;;;;;;9.80;100.00;97283.13;5094803;28;20039;-60
2024/01/03 11:25:49;;;;;;;0.28;0.28;;;;;;;9.90;100.00;97270.41;5090223;28;20901;-61
2024/01/03 11:28:33;;;;;;;0.30;0.30;;;;;;;9.93;100.00;97279.75;5093277;28;20495;-60
2024/01/03 11:31:01;;;;;;;0.30;0.30;;;;;;;10.02;100.00;97275.38;5091260;28;20051;-60
2024/01/03 11:33:30;;;;;;;0.20;0.20;;;;;;;9.99;100.00;97267.13;5095388;28;20131;-60
2024/01/03 11:35:57;;;;;;;0.20;0.20;;;;;;;10.05;100.00;97272.13;5091721;28;20040;-60
2024/01/03 11:38:40;;;;;;;0.20;0.20;;;;;;;9.68;100.00;97262.94;5073878;28;21010;-61